Time;durP1;ratioP1;P1;durP2;ratioP2;P2;SDS_P1;SDS_P2;PMS_P1;PMS_P2;Temp;Humidity;BMP_temperature;BMP_pressure;BME280_temperature;BME280_humidity;BME280_pressure;Samples;Min_cycle;Max_cycle;Signal;HPM_P1;HPM_P2
2024/03/08 00:00:18;;;;;;;35.00;16.02;;;;;;;-2.03;71.53;101123.17;1682987;85;21573;-71
2024/03/08 00:02:47;;;;;;;35.48;15.48;;;;;;;-2.03;71.54;101120.97;1683099;85;21044;-70
2024/03/08 00:05:15;;;;;;;37.17;16.40;;;;;;;-2.06;71.51;101119.34;1683123;85;21059;-72
2024/03/08 00:07:44;;;;;;;39.05;16.45;;;;;;;-2.10;71.58;101124.53;1683270;85;21100;-71
2024/03/08 00:10:13;;;;;;;38.55;17.05;;;;;;;-2.09;71.73;101118.20;1683059;85;21447;-71
2024/03/08 00:12:46;;;;;;;39.88;17.42;;;;;;;-2.05;71.78;101120.20;1682978;85;21515;-71
2024/03/08 00:15:16;;;;;;;44.48;18.05;;;;;;;-2.02;71.75;101114.63;1682911;85;21087;-72
2024/03/08 00:17:47;;;;;;;39.95;17.82;;;;;;;-2.04;71.66;101112.53;1683138;85;21472;-71
2024/03/08 00:20:19;;;;;;;43.17;18.10;;;;;;;-2.06;71.73;101109.94;1683037;85;21147;-71
2024/03/08 00:22:48;;;;;;;46.10;18.33;;;;;;;-2.09;71.71;101109.28;1682824;85;21099;-71
2024/03/08 00:25:16;;;;;;;42.62;17.67;;;;;;;-2.16;71.79;101109.30;1682974;85;21083;-71
2024/03/08 00:27:44;;;;;;;36.68;17.70;;;;;;;-2.25;71.86;101106.25;1683151;85;21067;-71
2024/03/08 00:30:13;;;;;;;49.90;19.45;;;;;;;-2.27;72.11;101105.48;1683040;85;21087;-71
2024/03/08 00:32:43;;;;;;;43.60;18.87;;;;;;;-2.30;72.19;101103.00;1683062;85;21012;-71
2024/03/08 00:35:12;;;;;;;48.28;19.42;;;;;;;-2.33;72.25;101101.85;1683161;85;21091;-71
2024/03/08 00:37:41;;;;;;;52.78;20.68;;;;;;;-2.33;72.45;101095.14;1683002;85;21607;-71
2024/03/08 00:40:11;;;;;;;55.43;21.33;;;;;;;-2.33;72.53;101099.17;1682993;85;21518;-71
2024/03/08 00:42:40;;;;;;;64.35;24.07;;;;;;;-2.33;72.53;101096.97;1683136;85;21103;-71
2024/03/08 00:45:11;;;;;;;56.58;23.05;;;;;;;-2.35;72.60;101093.52;1682981;85;21475;-70
2024/03/08 00:47:40;;;;;;;54.23;22.37;;;;;;;-2.35;72.71;101083.64;1683054;85;21067;-72
2024/03/08 00:50:09;;;;;;;54.13;22.15;;;;;;;-2.35;72.74;101087.67;1682885;85;21495;-72
2024/03/08 00:52:38;;;;;;;55.20;21.90;;;;;;;-2.33;72.77;101087.58;1683052;85;21020;-70
2024/03/08 00:55:10;;;;;;;51.13;22.73;;;;;;;-2.30;72.80;101088.23;1683060;85;21095;-71
2024/03/08 00:57:38;;;;;;;56.48;23.02;;;;;;;-2.29;72.79;101085.08;1682993;85;21067;-71
2024/03/08 01:00:11;;;;;;;54.50;23.00;;;;;;;-2.28;72.86;101079.61;1682953;85;21190;-72
2024/03/08 01:02:39;;;;;;;51.73;20.97;;;;;;;-2.25;72.98;101079.41;1682918;85;21087;-69
2024/03/08 01:05:08;;;;;;;50.73;22.93;;;;;;;-2.17;73.05;101074.88;1683334;85;21095;-70
2024/03/08 01:07:37;;;;;;;50.30;22.13;;;;;;;-2.17;72.83;101080.25;1683156;85;21044;-71
2024/03/08 01:10:09;;;;;;;59.90;23.05;;;;;;;-2.17;72.72;101087.44;1683163;85;21055;-71
2024/03/08 01:12:39;;;;;;;54.42;21.97;;;;;;;-2.20;72.72;101085.82;1683018;85;21027;-70
2024/03/08 01:15:10;;;;;;;59.67;24.23;;;;;;;-2.22;72.76;101081.03;1683004;85;21059;-71
2024/03/08 01:17:38;;;;;;;55.83;23.05;;;;;;;-2.27;72.73;101079.98;1683266;85;21043;-72
2024/03/08 01:20:10;;;;;;;58.20;23.75;;;;;;;-2.27;72.84;101076.44;1658073;85;21042;-71
2024/03/08 01:22:40;;;;;;;62.00;23.52;;;;;;;-2.33;72.84;101072.33;1683155;85;21087;-71
2024/03/08 01:25:09;;;;;;;56.15;23.30;;;;;;;-2.36;72.89;101071.19;1682986;85;21083;-71
2024/03/08 01:27:37;;;;;;;51.98;22.15;;;;;;;-2.34;73.04;101066.58;1683211;85;21055;-70
2024/03/08 01:30:07;;;;;;;57.13;24.57;;;;;;;-2.29;73.17;101073.86;1683162;85;21499;-71
2024/03/08 01:32:38;;;;;;;52.30;22.55;;;;;;;-2.29;73.14;101069.83;1682960;85;21079;-73
2024/03/08 01:35:09;;;;;;;54.25;23.77;;;;;;;-2.28;73.05;101068.88;1683052;85;21115;-70
2024/03/08 01:37:38;;;;;;;56.50;23.52;;;;;;;-2.28;73.03;101067.53;1683247;85;21079;-71
2024/03/08 01:40:08;;;;;;;55.48;24.10;;;;;;;-2.26;73.09;101065.61;1683121;85;21641;-71
2024/03/08 01:42:37;;;;;;;54.93;24.07;;;;;;;-2.26;73.01;101064.74;1708057;84;21073;-70
2024/03/08 01:45:07;;;;;;;61.53;23.07;;;;;;;-2.32;72.90;101064.66;1707771;84;21123;-71
2024/03/08 01:47:36;;;;;;;60.52;23.98;;;;;;;-2.37;72.94;101056.53;1707805;84;21478;-71
2024/03/08 01:50:06;;;;;;;58.70;23.30;;;;;;;-2.39;73.01;101050.40;1683173;85;21067;-70
2024/03/08 01:52:35;;;;;;;56.80;23.83;;;;;;;-2.42;73.05;101047.44;1683334;85;21099;-72
2024/03/08 01:55:06;;;;;;;59.85;24.23;;;;;;;-2.43;73.04;101050.22;1683080;85;21146;-70
2024/03/08 01:57:34;;;;;;;60.12;24.12;;;;;;;-2.45;73.06;101048.11;1683185;85;21051;-72
2024/03/08 02:00:03;;;;;;;63.92;25.43;;;;;;;-2.49;73.12;101040.73;1683041;85;21083;-71
2024/03/08 02:02:34;;;;;;;64.17;25.88;;;;;;;-2.52;73.24;101036.05;1683141;85;21047;-70
2024/03/08 02:05:03;;;;;;;62.53;25.77;;;;;;;-2.57;73.29;101041.71;1654108;87;21072;-72
2024/03/08 02:07:32;;;;;;;70.03;26.75;;;;;;;-2.59;73.48;101039.61;1657885;85;21059;-71
2024/03/08 02:10:00;;;;;;;66.97;28.32;;;;;;;-2.62;73.50;101037.09;1683063;85;21119;-70
2024/03/08 02:12:29;;;;;;;76.70;29.60;;;;;;;-2.61;73.57;101034.79;1683190;85;21059;-71
2024/03/08 02:14:58;;;;;;;82.97;31.52;;;;;;;-2.62;73.61;101037.95;1683034;85;21507;-70
2024/03/08 02:17:26;;;;;;;87.10;32.38;;;;;;;-2.67;73.68;101036.04;1683422;85;21111;-71
2024/03/08 02:19:54;;;;;;;91.95;31.82;;;;;;;-2.71;73.79;101048.41;1683111;85;21472;-71
2024/03/08 02:22:25;;;;;;;83.92;30.30;;;;;;;-2.73;73.94;101037.77;1683110;85;21487;-71
2024/03/08 02:24:53;;;;;;;73.20;27.93;;;;;;;-2.73;73.96;101034.23;1683090;85;21103;-70
2024/03/08 02:27:25;;;;;;;72.40;30.80;;;;;;;-2.77;73.96;101034.05;1683092;85;21063;-71
2024/03/08 02:29:59;;;;;;;66.40;28.42;;;;;;;-2.77;74.09;101034.05;1683019;85;21499;-70
2024/03/08 02:32:27;;;;;;;72.67;28.38;;;;;;;-2.76;74.15;101031.74;1683099;85;21107;-71
2024/03/08 02:34:59;;;;;;;67.17;25.62;;;;;;;-2.78;74.21;101024.28;1683074;85;21126;-70
2024/03/08 02:37:29;;;;;;;65.05;27.00;;;;;;;-2.80;74.25;101031.55;1683128;85;21068;-71
2024/03/08 02:39:57;;;;;;;67.05;25.88;;;;;;;-2.79;74.39;101028.77;1683104;85;21471;-71
2024/03/08 02:42:25;;;;;;;67.85;26.55;;;;;;;-2.81;74.36;101023.98;1683118;85;21060;-71
2024/03/08 02:44:54;;;;;;;65.57;26.77;;;;;;;-2.83;74.41;101025.05;1681015;85;21515;-70
2024/03/08 02:47:22;;;;;;;64.35;25.75;;;;;;;-2.87;74.49;101019.02;1676078;86;21052;-71
2024/03/08 02:49:52;;;;;;;63.58;26.30;;;;;;;-2.87;74.56;101021.22;1676090;86;21084;-71
2024/03/08 02:52:21;;;;;;;64.80;26.45;;;;;;;-2.85;74.60;101017.58;1675954;85;21128;-71
2024/03/08 02:54:49;;;;;;;65.78;27.00;;;;;;;-2.84;74.62;101012.59;1675794;86;21060;-71
2024/03/08 02:57:18;;;;;;;64.95;26.35;;;;;;;-2.88;74.59;101015.47;1675631;86;21059;-71
2024/03/08 02:59:46;;;;;;;68.12;25.12;;;;;;;-2.94;74.61;101015.86;1675666;86;21087;-70
2024/03/08 03:02:16;;;;;;;65.17;26.95;;;;;;;-2.94;74.80;101009.16;1675698;86;21036;-70
2024/03/08 03:04:44;;;;;;;59.25;25.80;;;;;;;-2.95;74.90;101015.48;1675659;86;21060;-69
2024/03/08 03:07:13;;;;;;;63.68;26.05;;;;;;;-2.96;74.93;101012.41;1675723;86;21476;-71
2024/03/08 03:09:42;;;;;;;71.62;26.95;;;;;;;-2.97;74.97;101009.35;1675673;86;21087;-72
2024/03/08 03:12:11;;;;;;;60.20;26.20;;;;;;;-2.99;75.08;101005.91;1675806;86;21103;-72
2024/03/08 03:14:39;;;;;;;66.90;26.05;;;;;;;-2.97;75.11;101002.65;1675955;86;21468;-71
2024/03/08 03:17:08;;;;;;;63.02;24.82;;;;;;;-2.99;75.15;101006.38;1675760;86;21549;-71
2024/03/08 03:19:37;;;;;;;57.88;25.20;;;;;;;-3.05;75.08;101003.61;1675747;86;21497;-70
2024/03/08 03:22:06;;;;;;;59.38;24.98;;;;;;;-3.07;75.26;100993.47;1654414;86;21083;-71
2024/03/08 03:24:36;;;;;;;60.65;25.88;;;;;;;-3.03;75.36;100990.97;1675676;86;21060;-71
2024/03/08 03:27:10;;;;;;;59.60;24.57;;;;;;;-3.03;75.33;101000.35;1675920;86;21063;-71
2024/03/08 03:29:49;;;;;;;60.48;26.17;;;;;;;-3.05;75.31;100994.23;1675735;86;21531;-69
2024/03/08 03:32:18;;;;;;;55.60;23.62;;;;;;;-3.06;75.33;100989.83;1675836;86;21059;-71
2024/03/08 03:34:47;;;;;;;62.98;25.52;;;;;;;-3.05;75.39;100988.87;1675667;85;21088;-71
2024/03/08 03:37:17;;;;;;;63.25;24.77;;;;;;;-3.05;75.46;100991.55;1675895;86;21044;-70
2024/03/08 03:39:48;;;;;;;59.88;25.43;;;;;;;-3.05;75.48;100995.56;1675716;86;21059;-71
2024/03/08 03:42:17;;;;;;;64.40;26.42;;;;;;;-3.04;75.52;100991.93;1675754;86;21063;-70
2024/03/08 08:59:04;;;;;;;21.80;10.95;;;;;;;-3.06;75.42;100993.84;1650983;83;21133;-74
2024/03/08 09:01:35;;;;;;;22.35;12.13;;;;;;;7.31;43.99;100850.92;1638153;86;21099;-73
2024/03/08 09:04:04;;;;;;;26.00;12.60;;;;;;;7.21;44.03;100848.84;1644631;87;21086;-74
2024/03/08 09:06:35;;;;;;;21.35;12.47;;;;;;;7.08;43.85;100847.05;1631710;87;21216;-74
2024/03/08 09:09:05;;;;;;;25.32;12.13;;;;;;;6.96;43.98;100837.81;1626146;88;21039;-73
2024/03/08 09:11:35;;;;;;;20.35;10.60;;;;;;;6.89;43.69;100837.27;1625991;88;21075;-73
2024/03/08 09:14:05;;;;;;;24.35;11.93;;;;;;;6.74;43.44;100834.81;1625923;88;21479;-73
2024/03/08 09:16:34;;;;;;;21.10;12.23;;;;;;;6.58;43.83;100833.70;1606036;86;21481;-72
2024/03/08 09:19:03;;;;;;;24.23;11.22;;;;;;;6.45;44.66;100833.77;1725362;83;21428;-69
2024/03/08 09:21:37;;;;;;;19.12;10.78;;;;;;;6.38;44.36;100834.91;1725411;83;21008;-69
2024/03/08 09:24:07;;;;;;;18.55;10.28;;;;;;;6.30;43.69;100825.33;1725351;83;21056;-74
2024/03/08 09:26:37;;;;;;;25.82;11.03;;;;;;;6.14;43.99;100825.22;1725546;83;21056;-75
2024/03/08 09:29:10;;;;;;;21.35;10.30;;;;;;;6.10;44.43;100828.77;1725284;83;21416;-74
2024/03/08 09:31:46;;;;;;;20.65;10.53;;;;;;;6.12;44.57;100828.60;1723555;83;21039;-74
2024/03/08 09:34:15;;;;;;;18.75;10.10;;;;;;;6.12;44.32;100825.88;1697273;84;21057;-74
2024/03/08 09:36:46;;;;;;;20.57;10.13;;;;;;;6.08;43.63;100817.19;1749108;82;21032;-74
2024/03/08 09:39:20;;;;;;;23.35;10.25;;;;;;;5.92;43.80;100813.83;1750628;82;21020;-74
2024/03/08 09:41:49;;;;;;;19.57;10.00;;;;;;;5.78;43.92;100809.39;1750501;82;21111;-74
2024/03/08 09:44:19;;;;;;;17.50;9.75;;;;;;;5.66;44.40;100815.08;1750746;82;21040;-74
2024/03/08 09:46:48;;;;;;;16.55;7.83;;;;;;;5.61;44.46;100809.25;1750819;82;21008;-74
2024/03/08 09:49:17;;;;;;;15.75;7.92;;;;;;;5.58;43.76;100807.34;1750521;82;21570;-73
2024/03/08 09:51:46;;;;;;;13.43;7.17;;;;;;;5.53;43.04;100806.95;1750587;82;21036;-74
2024/03/08 09:54:16;;;;;;;11.03;6.22;;;;;;;5.49;43.02;100802.34;1750532;82;21029;-74
2024/03/08 09:56:47;;;;;;;14.07;6.72;;;;;;;5.46;42.71;100805.88;1750019;81;21499;-74
2024/03/08 10:01:52;;;;;;;12.53;6.33;;;;;;;5.50;43.16;100802.69;1743452;82;21408;-74
2024/03/08 10:04:25;;;;;;;12.43;6.40;;;;;;;5.59;43.13;100796.83;1726809;82;21064;-74
2024/03/08 10:06:56;;;;;;;14.28;6.78;;;;;;;5.65;42.79;100799.77;1722713;83;21502;-75
2024/03/08 10:09:27;;;;;;;14.50;6.05;;;;;;;5.69;42.06;100796.23;1735364;81;21027;-74
2024/03/08 10:11:59;;;;;;;14.58;6.70;;;;;;;5.71;42.12;100797.78;1716198;83;21514;-73
2024/03/08 10:14:28;;;;;;;13.10;6.80;;;;;;;5.72;41.75;100787.77;1735241;83;21071;-74
2024/03/08 10:17:00;;;;;;;12.80;6.72;;;;;;;5.67;41.60;100788.73;1735505;83;21536;-74
2024/03/08 10:19:30;;;;;;;12.80;7.20;;;;;;;5.66;41.59;100792.47;1735200;83;21051;-75
2024/03/08 10:22:04;;;;;;;13.85;6.87;;;;;;;5.66;41.85;100789.75;1735406;83;21082;-74
2024/03/08 10:24:35;;;;;;;13.45;7.10;;;;;;;5.68;41.81;100791.81;1735241;83;21047;-74
2024/03/08 10:27:07;;;;;;;18.27;8.33;;;;;;;5.66;41.98;100782.95;1735272;82;21036;-75
2024/03/08 10:29:38;;;;;;;17.80;7.83;;;;;;;5.66;42.19;100782.45;1735238;83;21055;-75
2024/03/08 10:32:08;;;;;;;16.12;8.08;;;;;;;5.71;41.84;100783.34;1735341;83;21087;-74
2024/03/08 10:34:37;;;;;;;15.50;8.33;;;;;;;5.76;41.65;100778.79;1735296;83;21063;-74
2024/03/08 10:37:07;;;;;;;16.52;8.05;;;;;;;5.78;41.73;100780.84;1735421;83;21051;-74
2024/03/08 10:39:36;;;;;;;17.48;8.53;;;;;;;5.74;41.59;100763.99;1735231;83;21035;-74
2024/03/08 10:42:06;;;;;;;16.80;7.70;;;;;;;5.69;42.07;100771.27;1735254;81;21114;-74
2024/03/08 10:44:55;;;;;;;13.70;7.62;;;;;;;5.69;42.27;100761.75;1735237;83;21500;-73
2024/03/08 10:47:30;;;;;;;12.03;6.78;;;;;;;5.71;41.93;100761.59;1724533;81;21048;-73
2024/03/08 10:50:12;;;;;;;14.43;7.72;;;;;;;5.67;40.80;100759.70;1735656;83;21027;-73
2024/03/08 10:52:41;;;;;;;15.08;7.33;;;;;;;5.63;41.23;100760.16;1735402;82;21067;-73
2024/03/08 10:55:12;;;;;;;13.60;7.30;;;;;;;5.63;41.83;100756.94;1735227;83;21031;-74
2024/03/08 10:57:43;;;;;;;15.40;7.40;;;;;;;5.68;41.58;100751.03;1735454;83;21474;-73
2024/03/08 11:00:18;;;;;;;18.70;7.47;;;;;;;5.74;41.75;100739.52;1736231;82;21055;-74
2024/03/08 11:02:49;;;;;;;11.65;5.45;;;;;;;5.78;41.65;100739.55;1733109;83;21462;-73
2024/03/08 11:05:40;;;;;;;11.33;6.05;;;;;;;5.86;41.97;100739.64;1732727;83;21063;-74
2024/03/08 11:08:19;;;;;;;14.98;6.80;;;;;;;5.91;41.56;100733.77;1732909;81;21037;-75
2024/03/08 11:10:55;;;;;;;14.58;6.40;;;;;;;5.94;40.83;100738.37;1732997;83;21013;-74
2024/03/08 11:13:46;;;;;;;12.23;5.92;;;;;;;5.96;40.80;100736.35;1732951;83;21061;-72
2024/03/08 11:16:35;;;;;;;15.98;7.47;;;;;;;6.00;41.02;100739.09;1677688;84;21124;-73
2024/03/08 11:19:12;;;;;;;15.48;6.45;;;;;;;6.04;40.80;100729.60;1677650;85;21070;-72
2024/03/08 11:21:44;;;;;;;11.57;6.65;;;;;;;6.02;40.74;100724.83;1659359;85;21078;-75
2024/03/08 11:24:13;;;;;;;12.70;6.67;;;;;;;6.03;40.55;100714.80;1659229;85;21139;-74
2024/03/08 11:26:45;;;;;;;11.35;6.62;;;;;;;6.01;40.69;100719.05;1677644;85;21111;-74
2024/03/08 11:29:39;;;;;;;12.85;6.67;;;;;;;5.98;40.69;100706.27;1658902;85;21491;-75
2024/03/08 11:32:12;;;;;;;12.05;6.17;;;;;;;5.98;40.54;100704.91;1677733;85;21027;-75
2024/03/08 11:34:44;;;;;;;11.95;5.83;;;;;;;6.03;40.60;100705.28;1677655;85;21075;-75
2024/03/08 11:37:18;;;;;;;15.30;6.10;;;;;;;6.09;40.15;100688.31;1677910;85;21043;-77
2024/03/08 11:39:52;;;;;;;12.20;6.58;;;;;;;6.13;39.99;100698.37;1677832;85;21107;-78
2024/03/08 11:42:21;;;;;;;9.93;5.40;;;;;;;6.18;39.74;100694.66;1677884;85;21083;-76
2024/03/08 11:44:52;;;;;;;11.48;5.42;;;;;;;6.19;39.06;100690.92;1678308;84;21035;-79
2024/03/08 11:47:23;;;;;;;8.65;4.75;;;;;;;6.21;39.04;100685.66;1678266;85;21083;-77
2024/03/08 11:49:53;;;;;;;9.23;5.00;;;;;;;6.23;38.28;100680.05;1677794;85;21136;-78
2024/03/08 11:52:24;;;;;;;10.08;4.75;;;;;;;6.22;38.07;100682.42;1677835;85;21090;-76
2024/03/08 11:54:56;;;;;;;7.28;4.37;;;;;;;6.24;38.11;100673.09;1659038;85;21016;-77
2024/03/08 11:57:28;;;;;;;7.35;4.62;;;;;;;6.28;37.72;100676.34;1677657;84;21099;-78
2024/03/08 11:59:58;;;;;;;9.70;4.47;;;;;;;6.29;37.34;100675.32;1677661;85;21035;-78
2024/03/08 12:02:28;;;;;;;10.30;4.33;;;;;;;6.29;37.58;100665.80;1677891;85;21031;-77
2024/03/08 12:04:59;;;;;;;10.85;4.47;;;;;;;6.32;37.43;100665.47;1677842;85;21004;-77
2024/03/08 12:07:36;;;;;;;7.85;4.35;;;;;;;6.33;38.36;100664.45;1684820;84;21087;-77
2024/03/08 12:10:21;;;;;;;13.60;5.50;;;;;;;6.36;39.23;100657.32;1677724;85;21079;-76
2024/03/08 12:12:59;;;;;;;11.33;4.95;;;;;;;6.40;38.43;100660.56;1677755;85;21099;-77
2024/03/08 12:15:32;;;;;;;10.25;6.00;;;;;;;6.41;38.29;100653.59;1677660;85;21075;-77
2024/03/08 12:18:01;;;;;;;9.25;5.12;;;;;;;6.45;38.01;100649.53;1677560;85;21546;-77
2024/03/08 12:20:31;;;;;;;11.22;5.62;;;;;;;6.48;37.90;100650.55;1677782;85;21102;-78
2024/03/08 12:23:00;;;;;;;9.33;4.83;;;;;;;6.49;38.21;100644.09;1677784;85;21090;-76
2024/03/08 12:25:35;;;;;;;9.93;4.67;;;;;;;6.55;37.35;100642.11;1677754;85;21122;-77
2024/03/08 12:28:12;;;;;;;9.08;4.72;;;;;;;6.57;37.18;100644.66;1677692;85;21039;-77
2024/03/08 12:31:04;;;;;;;9.30;5.03;;;;;;;6.56;37.07;100642.45;1677486;84;21485;-77
2024/03/08 12:33:32;;;;;;;9.50;5.00;;;;;;;6.54;37.03;100641.77;1672033;85;21129;-77
2024/03/08 12:36:01;;;;;;;9.95;5.00;;;;;;;6.52;36.97;100637.50;1675471;86;21073;-77
2024/03/08 12:38:32;;;;;;;9.50;5.17;;;;;;;6.49;37.02;100635.93;1675538;86;21042;-76
2024/03/08 12:41:02;;;;;;;7.95;4.90;;;;;;;6.53;37.60;100631.89;1626271;86;21030;-77
2024/03/08 12:43:33;;;;;;;7.87;4.83;;;;;;;6.57;36.93;100630.54;1647587;86;21141;-77
2024/03/08 12:46:05;;;;;;;9.70;4.70;;;;;;;6.61;37.17;100629.19;1675439;86;21504;-77
2024/03/08 12:48:39;;;;;;;12.80;5.60;;;;;;;6.61;37.30;100619.66;1675403;85;21061;-76
2024/03/08 12:51:08;;;;;;;10.00;5.53;;;;;;;6.59;37.28;100614.89;1675766;85;21065;-78
2024/03/08 12:53:40;;;;;;;9.88;4.87;;;;;;;6.61;37.00;100612.85;1675462;86;21517;-78
2024/03/08 12:56:10;;;;;;;9.53;4.53;;;;;;;6.62;37.00;100614.56;1675476;86;21074;-78
2024/03/08 12:58:40;;;;;;;11.85;5.17;;;;;;;6.64;37.16;100611.67;1675689;86;21109;-78
2024/03/08 13:01:11;;;;;;;10.60;4.50;;;;;;;6.65;37.23;100611.50;1675490;85;21078;-79
2024/03/08 13:03:43;;;;;;;8.35;4.15;;;;;;;6.67;37.36;100602.66;1675644;86;21132;-79
2024/03/08 13:06:12;;;;;;;8.48;4.35;;;;;;;6.69;37.02;100601.12;1675408;85;21037;-79
2024/03/08 13:08:41;;;;;;;8.98;4.72;;;;;;;6.73;36.53;100600.28;1675885;86;21085;-78
2024/03/08 13:11:14;;;;;;;8.83;4.72;;;;;;;6.73;36.26;100598.92;1675814;86;21033;-76
2024/03/08 13:13:44;;;;;;;12.45;4.80;;;;;;;6.72;36.35;100588.53;1675681;85;21480;-74
2024/03/08 13:16:14;;;;;;;9.48;4.87;;;;;;;6.74;36.63;100595.17;1675548;85;21109;-75
2024/03/08 13:18:49;;;;;;;8.48;5.08;;;;;;;6.77;36.99;100592.12;1675766;85;21132;-74
2024/03/08 13:21:23;;;;;;;13.50;4.87;;;;;;;6.79;37.23;100583.27;1675423;85;21058;-74
2024/03/08 13:23:52;;;;;;;11.00;5.50;;;;;;;6.79;37.22;100577.82;1675536;86;21053;-74
2024/03/08 13:26:25;;;;;;;9.50;4.85;;;;;;;6.82;37.37;100576.12;1675551;86;21049;-75
2024/03/08 13:28:54;;;;;;;8.48;5.08;;;;;;;6.86;36.96;100572.03;1675428;85;21101;-75
2024/03/08 13:31:28;;;;;;;9.53;5.05;;;;;;;6.88;37.07;100578.17;1675754;86;21074;-76
2024/03/08 13:33:58;;;;;;;8.98;4.80;;;;;;;6.89;36.75;100567.61;1675720;85;21478;-75
2024/03/08 13:36:39;;;;;;;12.03;5.40;;;;;;;6.88;37.01;100572.72;1675625;85;21406;-76
2024/03/08 13:39:10;;;;;;;8.10;4.87;;;;;;;6.88;37.24;100563.19;1675688;85;21083;-77
2024/03/08 13:41:33;;;;;;;6.42;4.00;;;;;;;6.87;37.26;100570.51;1647853;85;21110;-77
2024/03/08 13:44:03;;;;;;;8.68;4.78;;;;;;;6.88;37.11;100561.83;1675772;85;21976;-78
2024/03/08 13:46:32;;;;;;;6.50;4.15;;;;;;;6.88;37.10;100571.36;1647678;85;21056;-76
2024/03/08 13:49:09;;;;;;;8.95;5.37;;;;;;;6.89;37.47;100567.10;1647462;85;21063;-77
2024/03/08 13:51:39;;;;;;;7.15;4.40;;;;;;;6.91;37.73;100569.66;1675902;85;21079;-76
2024/03/08 13:54:09;;;;;;;13.15;4.92;;;;;;;6.97;40.35;100571.19;1647837;84;21138;-76
2024/03/08 13:56:41;;;;;;;10.30;4.53;;;;;;;7.06;38.49;100565.73;1675868;85;21102;-76
2024/03/08 13:59:10;;;;;;;12.28;5.22;;;;;;;7.09;37.29;100564.03;1675727;85;21637;-75
2024/03/08 14:01:43;;;;;;;10.80;4.60;;;;;;;7.11;37.36;100556.54;1675739;84;21498;-76
2024/03/08 14:04:17;;;;;;;8.93;4.85;;;;;;;7.12;37.59;100556.88;1676031;85;21063;-75
2024/03/08 14:06:46;;;;;;;11.20;4.92;;;;;;;7.11;37.52;100561.48;1674934;85;21567;-75
2024/03/08 14:09:19;;;;;;;11.63;5.78;;;;;;;7.12;37.82;100555.00;1674577;85;21513;-75
2024/03/08 14:11:48;;;;;;;19.80;6.35;;;;;;;7.15;38.29;100556.53;1645477;86;21082;-75
2024/03/08 14:14:18;;;;;;;9.18;4.92;;;;;;;7.22;37.75;100548.89;1655777;86;21082;-75
2024/03/08 14:16:48;;;;;;;9.68;4.85;;;;;;;7.29;37.76;100543.60;1674402;86;21062;-75
2024/03/08 14:19:18;;;;;;;9.65;4.50;;;;;;;7.34;37.49;100541.20;1674623;86;21098;-74
2024/03/08 14:21:48;;;;;;;9.45;4.58;;;;;;;7.36;37.68;100542.39;1673807;85;21101;-74
2024/03/08 14:24:20;;;;;;;9.63;4.53;;;;;;;7.35;37.53;100538.82;1674438;86;21507;-75
2024/03/08 14:26:51;;;;;;;8.10;4.12;;;;;;;7.34;37.30;100530.30;1674381;84;21054;-75
2024/03/08 14:29:20;;;;;;;15.32;4.40;;;;;;;7.32;37.25;100533.72;1674517;85;21054;-73
2024/03/08 14:31:49;;;;;;;8.78;4.35;;;;;;;7.28;37.45;100528.27;1674449;86;21050;-76
2024/03/08 14:34:20;;;;;;;11.33;4.45;;;;;;;7.21;36.95;100524.03;1639607;86;21117;-76
2024/03/08 14:36:49;;;;;;;9.08;4.53;;;;;;;7.17;37.37;100527.27;1696061;84;21090;-76
2024/03/08 14:39:21;;;;;;;9.55;5.00;;;;;;;7.13;37.17;100528.09;1696587;84;21086;-75
2024/03/08 14:41:49;;;;;;;8.65;5.20;;;;;;;7.10;37.37;100527.08;1696051;84;21090;-74
2024/03/08 14:44:19;;;;;;;10.00;4.53;;;;;;;7.09;37.72;100523.16;1696318;84;21066;-75
2024/03/08 14:46:49;;;;;;;10.55;4.40;;;;;;;7.08;37.83;100516.86;1688991;85;21050;-79
2024/03/08 14:49:21;;;;;;;12.15;4.42;;;;;;;7.09;38.28;100525.37;1696504;84;21143;-76
2024/03/08 14:51:51;;;;;;;12.33;5.08;;;;;;;7.09;37.90;100517.72;1696291;84;21018;-75
2024/03/08 14:54:22;;;;;;;9.18;4.22;;;;;;;7.09;37.92;100514.48;1696232;84;21010;-77
2024/03/08 14:56:52;;;;;;;13.15;5.00;;;;;;;7.10;38.08;100510.73;1689174;84;21125;-77
2024/03/08 14:59:21;;;;;;;11.38;4.75;;;;;;;7.10;37.50;100514.81;1689096;84;21046;-77
2024/03/08 15:01:51;;;;;;;9.90;4.47;;;;;;;7.09;37.79;100514.98;1688748;85;21022;-77
2024/03/08 15:04:20;;;;;;;12.13;4.22;;;;;;;7.09;37.29;100507.66;1696119;84;21065;-77
2024/03/08 15:06:51;;;;;;;8.28;4.08;;;;;;;7.07;37.14;100506.98;1690527;84;21084;-76
2024/03/08 15:09:20;;;;;;;9.43;4.25;;;;;;;7.01;37.12;100506.31;1687385;85;21064;-76
2024/03/08 15:11:50;;;;;;;8.03;3.75;;;;;;;6.94;37.13;100509.39;1687523;85;21087;-77
2024/03/08 15:14:20;;;;;;;8.95;3.70;;;;;;;6.90;37.35;100512.12;1687832;85;21515;-76
2024/03/08 15:16:50;;;;;;;8.63;3.72;;;;;;;6.86;37.14;100503.95;1672409;86;21090;-76
2024/03/08 15:19:20;;;;;;;9.70;3.70;;;;;;;6.82;37.38;100509.40;1687223;85;21107;-76
2024/03/08 15:21:50;;;;;;;7.55;4.17;;;;;;;6.80;37.62;100510.08;1644122;86;21077;-80
2024/03/08 15:24:22;;;;;;;10.95;5.78;;;;;;;6.77;37.64;100514.00;1649730;86;21074;-75
2024/03/08 15:26:55;;;;;;;8.63;4.72;;;;;;;6.75;37.96;100511.10;1687347;85;21143;-74
2024/03/08 15:29:26;;;;;;;7.95;4.55;;;;;;;6.70;37.84;100509.40;1687513;85;21064;-74
2024/03/08 15:31:54;;;;;;;8.20;4.25;;;;;;;6.66;37.91;100504.80;1687439;85;21068;-75
2024/03/08 15:34:25;;;;;;;9.23;4.67;;;;;;;6.63;38.02;100508.72;1665282;85;21082;-75
2024/03/08 15:36:57;;;;;;;9.45;4.47;;;;;;;6.60;38.78;100502.25;1658145;85;21054;-75
2024/03/08 15:39:27;;;;;;;12.70;5.22;;;;;;;6.59;38.46;100506.50;1663731;86;21122;-74
2024/03/08 15:41:56;;;;;;;13.60;5.22;;;;;;;6.56;38.41;100505.48;1658342;86;21039;-74
2024/03/08 15:44:27;;;;;;;13.22;6.35;;;;;;;6.51;38.68;100507.35;1663646;86;21217;-74
2024/03/08 15:46:56;;;;;;;12.40;5.42;;;;;;;6.48;38.89;100504.09;1658141;86;21090;-75
2024/03/08 15:49:26;;;;;;;12.43;5.33;;;;;;;6.44;38.87;100499.48;1663385;86;21536;-74
2024/03/08 15:51:55;;;;;;;11.28;5.67;;;;;;;6.40;38.94;100505.44;1663366;86;21547;-75
2024/03/08 15:54:25;;;;;;;10.82;5.30;;;;;;;6.35;39.21;100499.14;1663495;86;21019;-75
2024/03/08 15:56:54;;;;;;;13.93;5.78;;;;;;;6.32;39.26;100498.11;1663332;86;21126;-75
2024/03/08 15:59:23;;;;;;;12.25;6.15;;;;;;;6.28;39.55;100500.83;1663554;86;21046;-73
2024/03/08 16:01:53;;;;;;;12.82;5.70;;;;;;;6.26;39.59;100505.59;1663408;86;21128;-75
2024/03/08 16:04:25;;;;;;;11.78;5.83;;;;;;;6.22;39.69;100502.34;1663679;86;21110;-74
2024/03/08 16:06:54;;;;;;;17.37;6.35;;;;;;;6.20;40.35;100502.17;1660009;86;21512;-75
2024/03/08 16:09:25;;;;;;;12.40;5.65;;;;;;;6.18;40.24;100503.70;1658217;86;21083;-75
2024/03/08 16:11:54;;;;;;;23.62;9.58;;;;;;;6.16;40.39;100504.38;1658349;85;21094;-74
2024/03/08 16:14:24;;;;;;;41.63;13.72;;;;;;;6.12;40.38;100503.01;1648731;86;21039;-75
2024/03/08 16:16:53;;;;;;;46.83;16.20;;;;;;;6.07;40.53;100507.25;1658239;86;21581;-75
2024/03/08 16:19:26;;;;;;;43.75;15.35;;;;;;;6.00;40.75;100514.70;1658264;85;21514;-74
2024/03/08 16:21:57;;;;;;;39.20;13.90;;;;;;;5.92;41.08;100507.03;1658336;85;21054;-75
2024/03/08 16:24:29;;;;;;;29.90;11.80;;;;;;;5.86;41.18;100509.02;1658299;86;21039;-74
2024/03/08 16:27:00;;;;;;;40.10;14.60;;;;;;;5.79;41.35;100504.72;1658513;85;21055;-75
2024/03/08 16:29:29;;;;;;;47.95;17.20;;;;;;;5.73;41.47;100511.66;1658436;85;21094;-74
2024/03/08 16:31:59;;;;;;;47.13;17.50;;;;;;;5.67;41.76;100515.55;1658416;85;21050;-84
2024/03/08 16:34:28;;;;;;;47.75;17.15;;;;;;;5.60;41.93;100514.48;1685744;83;21530;-74
2024/03/08 16:36:58;;;;;;;42.30;16.45;;;;;;;5.75;50.07;100516.94;1691910;84;21453;-74
2024/03/08 16:39:28;;;;;;;59.45;20.68;;;;;;;5.82;46.81;100511.69;1692055;85;21098;-75
2024/03/08 16:41:58;;;;;;;47.13;16.27;;;;;;;5.77;45.32;100516.77;1692029;84;21050;-74
2024/03/08 16:44:27;;;;;;;39.42;15.80;;;;;;;5.67;44.31;100526.41;1692234;85;21019;-74
2024/03/08 16:47:00;;;;;;;53.25;19.27;;;;;;;5.56;43.96;100519.40;1683848;85;21089;-74
2024/03/08 16:49:30;;;;;;;70.83;25.02;;;;;;;5.49;44.06;100514.78;1684021;85;21118;-74
2024/03/08 16:51:59;;;;;;;108.25;38.35;;;;;;;5.40;43.89;100513.38;1684082;84;21094;-75
2024/03/08 16:54:28;;;;;;;96.70;34.48;;;;;;;5.31;43.68;100506.70;1686585;85;20994;-73